sensor_id;sensor_type;location;lat;lon;timestamp;P1;durP1;ratioP1;P2;durP2;ratioP2
16436;SDS011;8328;52.206;21.006;2023-06-10T00:01:15;10.53;;;9.43;;
16436;SDS011;8328;52.206;21.006;2023-06-10T00:03:42;11.77;;;9.57;;
16436;SDS011;8328;52.206;21.006;2023-06-10T00:06:08;10.43;;;8.53;;
16436;SDS011;8328;52.206;21.006;2023-06-10T00:08:35;10.40;;;8.87;;
16436;SDS011;8328;52.206;21.006;2023-06-10T00:11:02;11.90;;;9.00;;
16436;SDS011;8328;52.206;21.006;2023-06-10T00:13:28;10.17;;;8.57;;
16436;SDS011;8328;52.206;21.006;2023-06-10T00:15:54;9.33;;;8.43;;
16436;SDS011;8328;52.206;21.006;2023-06-10T00:18:20;9.27;;;8.17;;
16436;SDS011;8328;52.206;21.006;2023-06-10T00:20:46;7.33;;;6.60;;
16436;SDS011;8328;52.206;21.006;2023-06-10T00:23:14;8.97;;;7.80;;
16436;SDS011;8328;52.206;21.006;2023-06-10T00:25:40;8.67;;;6.87;;
16436;SDS011;8328;52.206;21.006;2023-06-10T00:28:05;7.60;;;6.90;;
16436;SDS011;8328;52.206;21.006;2023-06-10T00:30:31;8.80;;;7.07;;
16436;SDS011;8328;52.206;21.006;2023-06-10T00:32:57;7.43;;;6.53;;
16436;SDS011;8328;52.206;21.006;2023-06-10T00:35:23;6.43;;;5.83;;
16436;SDS011;8328;52.206;21.006;2023-06-10T00:37:49;9.03;;;6.03;;
16436;SDS011;8328;52.206;21.006;2023-06-10T00:40:15;7.97;;;5.93;;
16436;SDS011;8328;52.206;21.006;2023-06-10T00:42:41;7.00;;;5.60;;
16436;SDS011;8328;52.206;21.006;2023-06-10T00:45:07;6.90;;;6.20;;
16436;SDS011;8328;52.206;21.006;2023-06-10T00:47:34;8.73;;;5.87;;
16436;SDS011;8328;52.206;21.006;2023-06-10T00:50:00;6.40;;;5.13;;
16436;SDS011;8328;52.206;21.006;2023-06-10T00:52:27;6.93;;;5.10;;
16436;SDS011;8328;52.206;21.006;2023-06-10T00:54:55;8.33;;;5.87;;
16436;SDS011;8328;52.206;21.006;2023-06-10T00:57:21;7.57;;;5.50;;
16436;SDS011;8328;52.206;21.006;2023-06-10T00:59:47;7.90;;;5.07;;
16436;SDS011;8328;52.206;21.006;2023-06-10T01:02:14;8.73;;;5.57;;
16436;SDS011;8328;52.206;21.006;2023-06-10T01:04:40;8.00;;;5.03;;
16436;SDS011;8328;52.206;21.006;2023-06-10T01:07:12;6.97;;;5.00;;
16436;SDS011;8328;52.206;21.006;2023-06-10T01:12:58;6.83;;;5.27;;
16436;SDS011;8328;52.206;21.006;2023-06-10T01:15:14;9.00;;;4.60;;
16436;SDS011;8328;52.206;21.006;2023-06-10T01:17:59;8.87;;;5.17;;
16436;SDS011;8328;52.206;21.006;2023-06-10T01:20:27;6.10;;;4.73;;
16436;SDS011;8328;52.206;21.006;2023-06-10T01:22:55;7.00;;;4.57;;
16436;SDS011;8328;52.206;21.006;2023-06-10T01:25:23;6.13;;;4.77;;
16436;SDS011;8328;52.206;21.006;2023-06-10T01:27:53;6.93;;;4.53;;
16436;SDS011;8328;52.206;21.006;2023-06-10T01:30:36;8.50;;;5.10;;
16436;SDS011;8328;52.206;21.006;2023-06-10T01:33:34;7.13;;;4.73;;
16436;SDS011;8328;52.206;21.006;2023-06-10T01:36:02;6.30;;;4.57;;
16436;SDS011;8328;52.206;21.006;2023-06-10T01:38:30;7.13;;;4.20;;
16436;SDS011;8328;52.206;21.006;2023-06-10T01:41:01;6.03;;;4.50;;
16436;SDS011;8328;52.206;21.006;2023-06-10T01:43:28;8.37;;;4.63;;
16436;SDS011;8328;52.206;21.006;2023-06-10T01:45:58;5.37;;;4.50;;
16436;SDS011;8328;52.206;21.006;2023-06-10T01:48:24;5.77;;;4.30;;
16436;SDS011;8328;52.206;21.006;2023-06-10T01:50:50;5.93;;;4.60;;
16436;SDS011;8328;52.206;21.006;2023-06-10T01:53:16;7.70;;;4.20;;
16436;SDS011;8328;52.206;21.006;2023-06-10T01:55:42;6.87;;;4.47;;
16436;SDS011;8328;52.206;21.006;2023-06-10T01:58:08;5.63;;;4.43;;
16436;SDS011;8328;52.206;21.006;2023-06-10T02:00:34;7.40;;;4.60;;
16436;SDS011;8328;52.206;21.006;2023-06-10T02:03:00;7.83;;;4.53;;
16436;SDS011;8328;52.206;21.006;2023-06-10T02:05:26;6.20;;;4.53;;
16436;SDS011;8328;52.206;21.006;2023-06-10T02:07:52;7.57;;;4.67;;
16436;SDS011;8328;52.206;21.006;2023-06-10T02:10:18;6.17;;;4.43;;
16436;SDS011;8328;52.206;21.006;2023-06-10T02:12:44;5.63;;;4.23;;
16436;SDS011;8328;52.206;21.006;2023-06-10T02:15:10;7.20;;;5.03;;
16436;SDS011;8328;52.206;21.006;2023-06-10T02:17:36;6.57;;;4.63;;
16436;SDS011;8328;52.206;21.006;2023-06-10T02:20:02;6.63;;;4.57;;
16436;SDS011;8328;52.206;21.006;2023-06-10T02:22:32;7.33;;;4.50;;
16436;SDS011;8328;52.206;21.006;2023-06-10T02:24:58;6.37;;;4.17;;
16436;SDS011;8328;52.206;21.006;2023-06-10T02:27:24;5.77;;;4.53;;
16436;SDS011;8328;52.206;21.006;2023-06-10T02:29:50;5.90;;;4.23;;
16436;SDS011;8328;52.206;21.006;2023-06-10T02:32:16;8.17;;;4.67;;
16436;SDS011;8328;52.206;21.006;2023-06-10T02:34:42;5.37;;;4.07;;
16436;SDS011;8328;52.206;21.006;2023-06-10T02:37:08;7.60;;;4.60;;
16436;SDS011;8328;52.206;21.006;2023-06-10T02:39:34;9.53;;;4.60;;
16436;SDS011;8328;52.206;21.006;2023-06-10T02:42:00;8.00;;;4.23;;
16436;SDS011;8328;52.206;21.006;2023-06-10T02:44:26;6.60;;;4.30;;
16436;SDS011;8328;52.206;21.006;2023-06-10T02:46:52;8.33;;;5.30;;
16436;SDS011;8328;52.206;21.006;2023-06-10T02:49:18;4.70;;;3.77;;
16436;SDS011;8328;52.206;21.006;2023-06-10T02:51:44;5.67;;;4.00;;
16436;SDS011;8328;52.206;21.006;2023-06-10T02:54:10;8.37;;;4.23;;
16436;SDS011;8328;52.206;21.006;2023-06-10T02:56:36;7.83;;;4.50;;
16436;SDS011;8328;52.206;21.006;2023-06-10T02:59:06;6.17;;;4.27;;
16436;SDS011;8328;52.206;21.006;2023-06-10T03:01:33;5.50;;;4.03;;
16436;SDS011;8328;52.206;21.006;2023-06-10T03:04:02;8.30;;;4.70;;
16436;SDS011;8328;52.206;21.006;2023-06-10T03:06:28;5.17;;;3.90;;
16436;SDS011;8328;52.206;21.006;2023-06-10T03:08:54;6.60;;;4.40;;
16436;SDS011;8328;52.206;21.006;2023-06-10T03:11:20;7.30;;;4.30;;
16436;SDS011;8328;52.206;21.006;2023-06-10T03:13:46;7.23;;;4.30;;
16436;SDS011;8328;52.206;21.006;2023-06-10T03:16:12;8.23;;;4.43;;
16436;SDS011;8328;52.206;21.006;2023-06-10T03:18:38;9.20;;;4.20;;
16436;SDS011;8328;52.206;21.006;2023-06-10T03:21:04;7.83;;;4.33;;
16436;SDS011;8328;52.206;21.006;2023-06-10T03:23:30;5.90;;;3.80;;
16436;SDS011;8328;52.206;21.006;2023-06-10T03:25:57;14.80;;;4.53;;
16436;SDS011;8328;52.206;21.006;2023-06-10T03:28:22;5.10;;;4.10;;
16436;SDS011;8328;52.206;21.006;2023-06-10T03:30:48;7.27;;;3.90;;
16436;SDS011;8328;52.206;21.006;2023-06-10T03:33:14;9.30;;;4.33;;
16436;SDS011;8328;52.206;21.006;2023-06-10T03:35:40;5.53;;;3.90;;
16436;SDS011;8328;52.206;21.006;2023-06-10T03:38:06;5.10;;;4.10;;
16436;SDS011;8328;52.206;21.006;2023-06-10T03:40:32;4.47;;;4.00;;
16436;SDS011;8328;52.206;21.006;2023-06-10T03:42:58;6.30;;;4.07;;
16436;SDS011;8328;52.206;21.006;2023-06-10T03:45:25;6.67;;;3.93;;
16436;SDS011;8328;52.206;21.006;2023-06-10T03:47:53;6.77;;;4.00;;
16436;SDS011;8328;52.206;21.006;2023-06-10T03:50:20;4.57;;;4.00;;
16436;SDS011;8328;52.206;21.006;2023-06-10T03:52:48;6.00;;;3.67;;
16436;SDS011;8328;52.206;21.006;2023-06-10T03:55:14;6.17;;;4.20;;
16436;SDS011;8328;52.206;21.006;2023-06-10T03:57:42;6.27;;;4.33;;
16436;SDS011;8328;52.206;21.006;2023-06-10T04:00:08;6.10;;;3.90;;
16436;SDS011;8328;52.206;21.006;2023-06-10T04:02:38;8.17;;;4.67;;
16436;SDS011;8328;52.206;21.006;2023-06-10T04:05:16;7.37;;;4.27;;
16436;SDS011;8328;52.206;21.006;2023-06-10T04:07:45;8.63;;;4.60;;
16436;SDS011;8328;52.206;21.006;2023-06-10T04:10:13;9.17;;;4.60;;
16436;SDS011;8328;52.206;21.006;2023-06-10T04:12:40;7.23;;;4.30;;
16436;SDS011;8328;52.206;21.006;2023-06-10T04:15:07;6.90;;;4.20;;
16436;SDS011;8328;52.206;21.006;2023-06-10T04:17:33;7.70;;;4.10;;
16436;SDS011;8328;52.206;21.006;2023-06-10T04:20:00;7.63;;;4.03;;
16436;SDS011;8328;52.206;21.006;2023-06-10T04:22:26;8.23;;;4.23;;
16436;SDS011;8328;52.206;21.006;2023-06-10T04:24:53;8.70;;;4.50;;
16436;SDS011;8328;52.206;21.006;2023-06-10T04:27:18;4.43;;;3.70;;
16436;SDS011;8328;52.206;21.006;2023-06-10T04:29:44;6.23;;;4.20;;
16436;SDS011;8328;52.206;21.006;2023-06-10T04:32:11;5.97;;;4.13;;
16436;SDS011;8328;52.206;21.006;2023-06-10T04:34:37;7.40;;;4.17;;
16436;SDS011;8328;52.206;21.006;2023-06-10T04:37:05;10.57;;;4.83;;
16436;SDS011;8328;52.206;21.006;2023-06-10T04:39:32;5.53;;;3.87;;
16436;SDS011;8328;52.206;21.006;2023-06-10T04:41:59;6.40;;;4.20;;
16436;SDS011;8328;52.206;21.006;2023-06-10T04:44:25;5.83;;;4.20;;
16436;SDS011;8328;52.206;21.006;2023-06-10T04:46:51;6.33;;;4.00;;
16436;SDS011;8328;52.206;21.006;2023-06-10T04:49:17;6.53;;;3.80;;
16436;SDS011;8328;52.206;21.006;2023-06-10T04:51:43;6.53;;;3.43;;
16436;SDS011;8328;52.206;21.006;2023-06-10T04:54:09;8.07;;;6.03;;
16436;SDS011;8328;52.206;21.006;2023-06-10T04:56:35;4.70;;;3.93;;
16436;SDS011;8328;52.206;21.006;2023-06-10T04:59:02;8.97;;;4.80;;
16436;SDS011;8328;52.206;21.006;2023-06-10T05:01:27;5.77;;;3.43;;
16436;SDS011;8328;52.206;21.006;2023-06-10T05:03:53;6.60;;;4.03;;
16436;SDS011;8328;52.206;21.006;2023-06-10T05:06:19;7.80;;;4.10;;
16436;SDS011;8328;52.206;21.006;2023-06-10T05:08:45;4.90;;;3.90;;
16436;SDS011;8328;52.206;21.006;2023-06-10T05:11:12;6.40;;;4.70;;
16436;SDS011;8328;52.206;21.006;2023-06-10T05:13:37;6.83;;;4.00;;
16436;SDS011;8328;52.206;21.006;2023-06-10T05:16:05;7.97;;;4.93;;
16436;SDS011;8328;52.206;21.006;2023-06-10T05:18:31;5.97;;;3.90;;
16436;SDS011;8328;52.206;21.006;2023-06-10T05:20:57;5.40;;;3.80;;
16436;SDS011;8328;52.206;21.006;2023-06-10T05:23:23;7.27;;;3.87;;
16436;SDS011;8328;52.206;21.006;2023-06-10T05:25:49;9.03;;;4.60;;
16436;SDS011;8328;52.206;21.006;2023-06-10T05:28:15;4.77;;;3.47;;
16436;SDS011;8328;52.206;21.006;2023-06-10T05:30:41;4.30;;;3.90;;
16436;SDS011;8328;52.206;21.006;2023-06-10T05:33:07;4.43;;;3.67;;
16436;SDS011;8328;52.206;21.006;2023-06-10T05:35:33;4.47;;;3.90;;
16436;SDS011;8328;52.206;21.006;2023-06-10T05:37:59;4.70;;;3.70;;
16436;SDS011;8328;52.206;21.006;2023-06-10T05:40:25;7.93;;;4.17;;
16436;SDS011;8328;52.206;21.006;2023-06-10T05:42:51;8.33;;;3.90;;
16436;SDS011;8328;52.206;21.006;2023-06-10T05:45:17;8.57;;;4.00;;
16436;SDS011;8328;52.206;21.006;2023-06-10T05:47:43;5.20;;;3.93;;
16436;SDS011;8328;52.206;21.006;2023-06-10T05:50:09;8.83;;;3.47;;
16436;SDS011;8328;52.206;21.006;2023-06-10T05:52:35;6.20;;;4.40;;
16436;SDS011;8328;52.206;21.006;2023-06-10T05:55:02;5.90;;;4.43;;
16436;SDS011;8328;52.206;21.006;2023-06-10T05:57:28;5.47;;;3.73;;
16436;SDS011;8328;52.206;21.006;2023-06-10T05:59:54;4.80;;;3.93;;
16436;SDS011;8328;52.206;21.006;2023-06-10T06:02:20;5.43;;;4.17;;
16436;SDS011;8328;52.206;21.006;2023-06-10T06:04:47;6.50;;;4.33;;
16436;SDS011;8328;52.206;21.006;2023-06-10T06:07:13;8.37;;;5.23;;
16436;SDS011;8328;52.206;21.006;2023-06-10T06:09:39;6.67;;;4.27;;
16436;SDS011;8328;52.206;21.006;2023-06-10T06:12:05;6.17;;;4.13;;
16436;SDS011;8328;52.206;21.006;2023-06-10T06:14:32;6.87;;;4.20;;
16436;SDS011;8328;52.206;21.006;2023-06-10T06:16:58;6.33;;;4.37;;
16436;SDS011;8328;52.206;21.006;2023-06-10T06:19:25;8.67;;;5.17;;
16436;SDS011;8328;52.206;21.006;2023-06-10T06:21:51;6.97;;;4.40;;
16436;SDS011;8328;52.206;21.006;2023-06-10T06:24:16;5.60;;;3.90;;
16436;SDS011;8328;52.206;21.006;2023-06-10T06:26:42;10.30;;;5.00;;
16436;SDS011;8328;52.206;21.006;2023-06-10T06:29:08;7.93;;;4.17;;
16436;SDS011;8328;52.206;21.006;2023-06-10T06:31:34;6.97;;;4.47;;
16436;SDS011;8328;52.206;21.006;2023-06-10T06:34:00;6.13;;;3.80;;
16436;SDS011;8328;52.206;21.006;2023-06-10T06:36:26;5.20;;;4.30;;
16436;SDS011;8328;52.206;21.006;2023-06-10T06:38:52;4.90;;;4.27;;
16436;SDS011;8328;52.206;21.006;2023-06-10T06:41:19;5.20;;;4.27;;
16436;SDS011;8328;52.206;21.006;2023-06-10T06:43:47;7.50;;;4.80;;
16436;SDS011;8328;52.206;21.006;2023-06-10T06:46:13;7.37;;;4.30;;
16436;SDS011;8328;52.206;21.006;2023-06-10T06:48:39;7.33;;;4.70;;
16436;SDS011;8328;52.206;21.006;2023-06-10T06:51:05;6.67;;;4.90;;
16436;SDS011;8328;52.206;21.006;2023-06-10T06:53:31;10.23;;;5.03;;
16436;SDS011;8328;52.206;21.006;2023-06-10T06:55:57;7.80;;;4.40;;
16436;SDS011;8328;52.206;21.006;2023-06-10T06:58:23;6.50;;;4.50;;
16436;SDS011;8328;52.206;21.006;2023-06-10T07:00:49;9.53;;;4.27;;
16436;SDS011;8328;52.206;21.006;2023-06-10T07:03:15;7.57;;;4.57;;
16436;SDS011;8328;52.206;21.006;2023-06-10T07:05:41;6.50;;;4.13;;
16436;SDS011;8328;52.206;21.006;2023-06-10T07:08:07;11.57;;;4.90;;
16436;SDS011;8328;52.206;21.006;2023-06-10T07:10:33;6.43;;;4.20;;
16436;SDS011;8328;52.206;21.006;2023-06-10T07:12:59;7.17;;;4.40;;
16436;SDS011;8328;52.206;21.006;2023-06-10T07:15:25;9.47;;;4.40;;
16436;SDS011;8328;52.206;21.006;2023-06-10T07:17:51;6.70;;;4.17;;
16436;SDS011;8328;52.206;21.006;2023-06-10T07:20:17;8.47;;;4.43;;
16436;SDS011;8328;52.206;21.006;2023-06-10T07:22:43;9.00;;;4.87;;
16436;SDS011;8328;52.206;21.006;2023-06-10T07:25:09;6.93;;;4.50;;
16436;SDS011;8328;52.206;21.006;2023-06-10T07:27:36;7.83;;;4.53;;
16436;SDS011;8328;52.206;21.006;2023-06-10T07:30:02;6.23;;;4.10;;
16436;SDS011;8328;52.206;21.006;2023-06-10T07:32:33;5.93;;;4.80;;
16436;SDS011;8328;52.206;21.006;2023-06-10T07:34:58;10.67;;;4.70;;
16436;SDS011;8328;52.206;21.006;2023-06-10T07:37:24;7.60;;;4.93;;
16436;SDS011;8328;52.206;21.006;2023-06-10T07:39:50;7.10;;;4.33;;
16436;SDS011;8328;52.206;21.006;2023-06-10T07:42:16;7.87;;;4.67;;
16436;SDS011;8328;52.206;21.006;2023-06-10T07:44:42;8.03;;;4.73;;
16436;SDS011;8328;52.206;21.006;2023-06-10T07:47:08;7.37;;;4.47;;
16436;SDS011;8328;52.206;21.006;2023-06-10T07:49:34;5.33;;;4.33;;
16436;SDS011;8328;52.206;21.006;2023-06-10T07:52:00;8.23;;;4.30;;
16436;SDS011;8328;52.206;21.006;2023-06-10T07:54:27;7.27;;;4.03;;
16436;SDS011;8328;52.206;21.006;2023-06-10T07:56:52;7.17;;;4.30;;
16436;SDS011;8328;52.206;21.006;2023-06-10T07:59:18;7.33;;;4.10;;
16436;SDS011;8328;52.206;21.006;2023-06-10T08:01:44;5.13;;;4.23;;
16436;SDS011;8328;52.206;21.006;2023-06-10T08:04:11;6.13;;;4.30;;
16436;SDS011;8328;52.206;21.006;2023-06-10T08:06:37;6.57;;;4.37;;
16436;SDS011;8328;52.206;21.006;2023-06-10T08:09:03;5.77;;;4.37;;
16436;SDS011;8328;52.206;21.006;2023-06-10T08:11:29;6.50;;;4.67;;
16436;SDS011;8328;52.206;21.006;2023-06-10T08:13:56;6.23;;;4.23;;
16436;SDS011;8328;52.206;21.006;2023-06-10T08:16:21;10.37;;;4.87;;
16436;SDS011;8328;52.206;21.006;2023-06-10T08:18:47;6.77;;;4.50;;
16436;SDS011;8328;52.206;21.006;2023-06-10T08:21:15;7.63;;;4.10;;
16436;SDS011;8328;52.206;21.006;2023-06-10T08:23:41;8.30;;;4.50;;
16436;SDS011;8328;52.206;21.006;2023-06-10T08:26:09;10.80;;;4.67;;
16436;SDS011;8328;52.206;21.006;2023-06-10T08:28:35;8.50;;;4.53;;
16436;SDS011;8328;52.206;21.006;2023-06-10T08:31:01;13.80;;;4.60;;
16436;SDS011;8328;52.206;21.006;2023-06-10T08:33:27;6.47;;;4.50;;
16436;SDS011;8328;52.206;21.006;2023-06-10T08:35:52;12.30;;;4.70;;
16436;SDS011;8328;52.206;21.006;2023-06-10T08:38:18;5.70;;;4.20;;
16436;SDS011;8328;52.206;21.006;2023-06-10T08:40:44;6.67;;;4.33;;
16436;SDS011;8328;52.206;21.006;2023-06-10T08:43:15;11.67;;;4.50;;
16436;SDS011;8328;52.206;21.006;2023-06-10T08:46:00;9.07;;;4.30;;
16436;SDS011;8328;52.206;21.006;2023-06-10T08:48:29;6.47;;;4.27;;
16436;SDS011;8328;52.206;21.006;2023-06-10T08:50:56;4.77;;;4.27;;
16436;SDS011;8328;52.206;21.006;2023-06-10T08:53:22;6.30;;;4.60;;
16436;SDS011;8328;52.206;21.006;2023-06-10T08:55:51;4.87;;;4.20;;
16436;SDS011;8328;52.206;21.006;2023-06-10T08:58:18;6.67;;;4.07;;
16436;SDS011;8328;52.206;21.006;2023-06-10T09:00:44;9.40;;;4.33;;
16436;SDS011;8328;52.206;21.006;2023-06-10T09:03:10;8.53;;;4.77;;
16436;SDS011;8328;52.206;21.006;2023-06-10T09:05:37;11.53;;;4.50;;
16436;SDS011;8328;52.206;21.006;2023-06-10T09:08:05;10.67;;;4.10;;
16436;SDS011;8328;52.206;21.006;2023-06-10T09:10:32;6.37;;;3.87;;
16436;SDS011;8328;52.206;21.006;2023-06-10T09:12:58;5.27;;;3.87;;
16436;SDS011;8328;52.206;21.006;2023-06-10T09:15:24;8.20;;;4.33;;
16436;SDS011;8328;52.206;21.006;2023-06-10T09:17:50;7.43;;;4.37;;
16436;SDS011;8328;52.206;21.006;2023-06-10T09:20:17;12.37;;;5.00;;
16436;SDS011;8328;52.206;21.006;2023-06-10T09:22:43;10.13;;;4.50;;
16436;SDS011;8328;52.206;21.006;2023-06-10T09:25:10;5.87;;;4.77;;
16436;SDS011;8328;52.206;21.006;2023-06-10T09:27:44;9.97;;;5.17;;
16436;SDS011;8328;52.206;21.006;2023-06-10T09:30:31;7.27;;;4.53;;
16436;SDS011;8328;52.206;21.006;2023-06-10T09:32:58;8.23;;;4.43;;
16436;SDS011;8328;52.206;21.006;2023-06-10T09:35:28;6.47;;;4.10;;
16436;SDS011;8328;52.206;21.006;2023-06-10T09:37:56;5.50;;;4.57;;
16436;SDS011;8328;52.206;21.006;2023-06-10T09:40:23;6.67;;;4.40;;
16436;SDS011;8328;52.206;21.006;2023-06-10T09:42:56;9.07;;;4.90;;
16436;SDS011;8328;52.206;21.006;2023-06-10T09:45:27;7.97;;;4.43;;
16436;SDS011;8328;52.206;21.006;2023-06-10T09:47:56;6.23;;;4.73;;
16436;SDS011;8328;52.206;21.006;2023-06-10T09:50:22;5.00;;;4.50;;
16436;SDS011;8328;52.206;21.006;2023-06-10T09:52:48;5.77;;;4.40;;
16436;SDS011;8328;52.206;21.006;2023-06-10T09:55:16;5.43;;;3.87;;
16436;SDS011;8328;52.206;21.006;2023-06-10T09:57:42;4.63;;;3.77;;
16436;SDS011;8328;52.206;21.006;2023-06-10T10:00:13;4.57;;;3.63;;
16436;SDS011;8328;52.206;21.006;2023-06-10T10:02:44;9.83;;;4.60;;
16436;SDS011;8328;52.206;21.006;2023-06-10T10:05:19;4.50;;;4.00;;
16436;SDS011;8328;52.206;21.006;2023-06-10T10:07:46;6.83;;;3.90;;
16436;SDS011;8328;52.206;21.006;2023-06-10T10:10:13;6.63;;;4.30;;
16436;SDS011;8328;52.206;21.006;2023-06-10T10:12:40;7.43;;;3.87;;
16436;SDS011;8328;52.206;21.006;2023-06-10T10:15:07;5.27;;;4.70;;
16436;SDS011;8328;52.206;21.006;2023-06-10T10:17:34;8.93;;;3.53;;
16436;SDS011;8328;52.206;21.006;2023-06-10T10:20:26;7.53;;;4.13;;
16436;SDS011;8328;52.206;21.006;2023-06-10T10:22:57;8.03;;;4.27;;
16436;SDS011;8328;52.206;21.006;2023-06-10T10:25:35;8.03;;;5.17;;
16436;SDS011;8328;52.206;21.006;2023-06-10T10:28:08;8.10;;;4.97;;
16436;SDS011;8328;52.206;21.006;2023-06-10T10:30:39;8.17;;;4.10;;
16436;SDS011;8328;52.206;21.006;2023-06-10T10:33:12;4.03;;;3.63;;
16436;SDS011;8328;52.206;21.006;2023-06-10T10:35:41;3.87;;;3.53;;
16436;SDS011;8328;52.206;21.006;2023-06-10T10:38:09;4.47;;;3.43;;
16436;SDS011;8328;52.206;21.006;2023-06-10T10:40:35;5.87;;;4.00;;
16436;SDS011;8328;52.206;21.006;2023-06-10T10:43:02;9.23;;;4.47;;
16436;SDS011;8328;52.206;21.006;2023-06-10T10:45:28;5.37;;;3.23;;
16436;SDS011;8328;52.206;21.006;2023-06-10T10:47:56;3.73;;;3.30;;
16436;SDS011;8328;52.206;21.006;2023-06-10T10:50:30;5.57;;;3.33;;
16436;SDS011;8328;52.206;21.006;2023-06-10T10:52:58;5.03;;;3.27;;
16436;SDS011;8328;52.206;21.006;2023-06-10T10:55:28;7.77;;;3.87;;
16436;SDS011;8328;52.206;21.006;2023-06-10T10:58:04;3.20;;;2.90;;
16436;SDS011;8328;52.206;21.006;2023-06-10T11:00:33;3.80;;;3.00;;
16436;SDS011;8328;52.206;21.006;2023-06-10T11:03:13;4.57;;;3.50;;
16436;SDS011;8328;52.206;21.006;2023-06-10T11:08:09;5.70;;;3.70;;
16436;SDS011;8328;52.206;21.006;2023-06-10T11:10:36;6.30;;;3.60;;
16436;SDS011;8328;52.206;21.006;2023-06-10T11:15:45;4.60;;;3.67;;
16436;SDS011;8328;52.206;21.006;2023-06-10T11:18:38;6.17;;;3.80;;
16436;SDS011;8328;52.206;21.006;2023-06-10T11:21:04;4.57;;;3.17;;
16436;SDS011;8328;52.206;21.006;2023-06-10T11:23:32;4.30;;;3.30;;
16436;SDS011;8328;52.206;21.006;2023-06-10T11:31:19;4.67;;;3.37;;
16436;SDS011;8328;52.206;21.006;2023-06-10T11:33:52;3.60;;;3.30;;
16436;SDS011;8328;52.206;21.006;2023-06-10T11:36:21;5.93;;;3.10;;
16436;SDS011;8328;52.206;21.006;2023-06-10T11:38:47;4.87;;;3.27;;
16436;SDS011;8328;52.206;21.006;2023-06-10T11:41:14;4.73;;;3.10;;
16436;SDS011;8328;52.206;21.006;2023-06-10T11:43:44;3.67;;;3.20;;
16436;SDS011;8328;52.206;21.006;2023-06-10T11:46:13;4.60;;;3.33;;
16436;SDS011;8328;52.206;21.006;2023-06-10T11:48:52;3.47;;;3.13;;
16436;SDS011;8328;52.206;21.006;2023-06-10T11:51:24;5.03;;;3.53;;
16436;SDS011;8328;52.206;21.006;2023-06-10T11:53:52;7.87;;;3.43;;
16436;SDS011;8328;52.206;21.006;2023-06-10T11:58:51;4.07;;;3.67;;
16436;SDS011;8328;52.206;21.006;2023-06-10T12:01:23;4.57;;;3.90;;
16436;SDS011;8328;52.206;21.006;2023-06-10T12:03:56;3.70;;;3.40;;
16436;SDS011;8328;52.206;21.006;2023-06-10T12:06:48;4.07;;;3.67;;
16436;SDS011;8328;52.206;21.006;2023-06-10T12:09:25;4.03;;;3.60;;
16436;SDS011;8328;52.206;21.006;2023-06-10T12:11:59;7.37;;;3.73;;
16436;SDS011;8328;52.206;21.006;2023-06-10T12:20:03;5.37;;;3.40;;
16436;SDS011;8328;52.206;21.006;2023-06-10T12:22:40;6.43;;;3.87;;
16436;SDS011;8328;52.206;21.006;2023-06-10T12:25:08;5.37;;;3.80;;
16436;SDS011;8328;52.206;21.006;2023-06-10T12:27:35;5.13;;;4.00;;
16436;SDS011;8328;52.206;21.006;2023-06-10T12:30:02;4.78;;;4.20;;
16436;SDS011;8328;52.206;21.006;2023-06-10T12:32:40;5.97;;;4.00;;
16436;SDS011;8328;52.206;21.006;2023-06-10T12:35:11;5.38;;;4.32;;
16436;SDS011;8328;52.206;21.006;2023-06-10T12:37:38;5.40;;;4.22;;
16436;SDS011;8328;52.206;21.006;2023-06-10T12:40:05;5.10;;;4.60;;
16436;SDS011;8328;52.206;21.006;2023-06-10T12:42:33;12.18;;;5.28;;
16436;SDS011;8328;52.206;21.006;2023-06-10T12:45:03;5.38;;;4.85;;
16436;SDS011;8328;52.206;21.006;2023-06-10T12:47:32;5.45;;;4.30;;
16436;SDS011;8328;52.206;21.006;2023-06-10T12:50:05;4.22;;;3.83;;
16436;SDS011;8328;52.206;21.006;2023-06-10T12:52:31;4.80;;;3.72;;
16436;SDS011;8328;52.206;21.006;2023-06-10T12:54:58;5.78;;;4.20;;
16436;SDS011;8328;52.206;21.006;2023-06-10T12:57:24;4.90;;;4.03;;
16436;SDS011;8328;52.206;21.006;2023-06-10T12:59:50;5.95;;;4.47;;
16436;SDS011;8328;52.206;21.006;2023-06-10T13:02:22;4.35;;;4.05;;
16436;SDS011;8328;52.206;21.006;2023-06-10T13:04:49;9.30;;;4.35;;
16436;SDS011;8328;52.206;21.006;2023-06-10T13:07:16;5.55;;;4.30;;
16436;SDS011;8328;52.206;21.006;2023-06-10T13:09:42;5.03;;;3.92;;
16436;SDS011;8328;52.206;21.006;2023-06-10T13:12:08;7.57;;;4.55;;
16436;SDS011;8328;52.206;21.006;2023-06-10T13:14:35;4.45;;;4.05;;
16436;SDS011;8328;52.206;21.006;2023-06-10T13:17:02;6.88;;;4.75;;
16436;SDS011;8328;52.206;21.006;2023-06-10T13:19:31;4.72;;;4.05;;
16436;SDS011;8328;52.206;21.006;2023-06-10T13:21:57;5.68;;;4.22;;
16436;SDS011;8328;52.206;21.006;2023-06-10T13:24:24;4.50;;;4.10;;
16436;SDS011;8328;52.206;21.006;2023-06-10T13:26:49;5.70;;;4.05;;
16436;SDS011;8328;52.206;21.006;2023-06-10T13:29:15;5.40;;;4.43;;
16436;SDS011;8328;52.206;21.006;2023-06-10T13:31:41;5.60;;;4.45;;
16436;SDS011;8328;52.206;21.006;2023-06-10T13:34:07;4.90;;;4.50;;
16436;SDS011;8328;52.206;21.006;2023-06-10T13:36:33;5.25;;;4.05;;
16436;SDS011;8328;52.206;21.006;2023-06-10T13:38:59;4.65;;;4.22;;
16436;SDS011;8328;52.206;21.006;2023-06-10T13:41:25;5.88;;;4.20;;
16436;SDS011;8328;52.206;21.006;2023-06-10T13:43:53;4.68;;;4.10;;
16436;SDS011;8328;52.206;21.006;2023-06-10T13:46:19;5.10;;;4.43;;
16436;SDS011;8328;52.206;21.006;2023-06-10T13:48:46;4.80;;;4.30;;
16436;SDS011;8328;52.206;21.006;2023-06-10T13:51:12;4.45;;;3.80;;
16436;SDS011;8328;52.206;21.006;2023-06-10T13:53:39;5.25;;;4.22;;
16436;SDS011;8328;52.206;21.006;2023-06-10T13:56:05;4.72;;;4.22;;
16436;SDS011;8328;52.206;21.006;2023-06-10T13:58:32;4.10;;;3.78;;
16436;SDS011;8328;52.206;21.006;2023-06-10T14:01:03;8.48;;;4.70;;
16436;SDS011;8328;52.206;21.006;2023-06-10T14:03:29;6.05;;;4.75;;
16436;SDS011;8328;52.206;21.006;2023-06-10T14:05:55;6.68;;;4.43;;
16436;SDS011;8328;52.206;21.006;2023-06-10T14:08:21;5.07;;;4.57;;
16436;SDS011;8328;52.206;21.006;2023-06-10T14:10:47;4.68;;;4.18;;
16436;SDS011;8328;52.206;21.006;2023-06-10T14:13:13;4.47;;;4.07;;
16436;SDS011;8328;52.206;21.006;2023-06-10T14:15:39;5.47;;;4.60;;
16436;SDS011;8328;52.206;21.006;2023-06-10T14:18:05;6.28;;;4.40;;
16436;SDS011;8328;52.206;21.006;2023-06-10T14:20:31;4.97;;;4.47;;
16436;SDS011;8328;52.206;21.006;2023-06-10T14:22:57;4.95;;;4.50;;
16436;SDS011;8328;52.206;21.006;2023-06-10T14:25:24;8.15;;;4.50;;
16436;SDS011;8328;52.206;21.006;2023-06-10T14:27:50;6.68;;;4.32;;
16436;SDS011;8328;52.206;21.006;2023-06-10T14:30:16;7.13;;;5.00;;
16436;SDS011;8328;52.206;21.006;2023-06-10T14:32:42;5.22;;;4.32;;
16436;SDS011;8328;52.206;21.006;2023-06-10T14:35:08;7.35;;;4.45;;
16436;SDS011;8328;52.206;21.006;2023-06-10T14:37:35;4.78;;;4.38;;
16436;SDS011;8328;52.206;21.006;2023-06-10T14:40:01;4.40;;;4.03;;
16436;SDS011;8328;52.206;21.006;2023-06-10T14:42:28;6.63;;;4.80;;
16436;SDS011;8328;52.206;21.006;2023-06-10T14:44:54;5.40;;;4.90;;
16436;SDS011;8328;52.206;21.006;2023-06-10T14:47:20;5.00;;;4.40;;
16436;SDS011;8328;52.206;21.006;2023-06-10T14:49:46;5.10;;;4.35;;
16436;SDS011;8328;52.206;21.006;2023-06-10T14:52:12;5.85;;;4.95;;
16436;SDS011;8328;52.206;21.006;2023-06-10T14:54:38;5.60;;;4.78;;
16436;SDS011;8328;52.206;21.006;2023-06-10T14:57:04;4.38;;;3.97;;
16436;SDS011;8328;52.206;21.006;2023-06-10T14:59:30;7.03;;;4.35;;
16436;SDS011;8328;52.206;21.006;2023-06-10T15:01:56;6.70;;;4.03;;
16436;SDS011;8328;52.206;21.006;2023-06-10T15:04:25;6.03;;;4.43;;
16436;SDS011;8328;52.206;21.006;2023-06-10T15:06:51;5.68;;;4.35;;
16436;SDS011;8328;52.206;21.006;2023-06-10T15:09:16;4.63;;;4.18;;
16436;SDS011;8328;52.206;21.006;2023-06-10T15:11:42;6.25;;;4.57;;